createdAt,value
2023-02-03T00:02:30.248Z,4.36
2023-02-03T00:07:26.723Z,4.40
2023-02-03T00:12:23.411Z,4.49
2023-02-03T00:17:19.830Z,4.59
2023-02-03T00:22:16.253Z,4.76
2023-02-03T00:27:12.721Z,4.96
2023-02-03T00:32:09.258Z,5.08
2023-02-03T00:37:05.713Z,5.20
2023-02-03T00:42:04.345Z,5.31
2023-02-03T00:47:01.328Z,5.36
2023-02-03T00:51:57.813Z,5.45
2023-02-03T00:56:54.324Z,5.60
2023-02-03T01:01:50.972Z,5.72
2023-02-03T01:06:47.394Z,5.85
2023-02-03T01:11:44.026Z,5.98
2023-02-03T01:16:40.827Z,6.07
2023-02-03T01:21:37.412Z,6.16
2023-02-03T01:26:33.849Z,6.21
2023-02-03T01:31:37.048Z,6.24
2023-02-03T01:36:35.203Z,6.31
2023-02-03T01:41:35.971Z,6.35
2023-02-03T01:46:37.136Z,6.36
2023-02-03T01:51:34.411Z,6.32
2023-02-03T01:56:35.012Z,6.35
2023-02-03T02:01:33.040Z,6.38
2023-02-03T02:06:29.598Z,6.38
2023-02-03T02:11:27.065Z,6.34
2023-02-03T02:16:35.410Z,6.38
2023-02-03T02:22:01.945Z,6.40
2023-02-03T02:27:37.691Z,6.38
2023-02-03T02:32:46.689Z,6.35
2023-02-03T02:37:58.297Z,6.37
2023-02-03T02:43:21.175Z,6.40
2023-02-03T02:48:30.285Z,6.39
2023-02-03T02:53:32.242Z,6.39
2023-02-03T02:58:31.506Z,6.38
2023-02-03T03:03:27.922Z,6.45
2023-02-03T03:08:32.355Z,6.42
2023-02-03T03:13:33.922Z,6.47
2023-02-03T03:18:38.901Z,6.47
2023-02-03T03:23:39.507Z,6.52
2023-02-03T03:28:47.946Z,6.56
2023-02-03T03:33:45.275Z,6.60
2023-02-03T03:38:47.783Z,6.60
2023-02-03T03:43:45.019Z,6.57
2023-02-03T03:48:54.889Z,6.59
2023-02-03T03:53:55.898Z,6.51
2023-02-03T03:58:54.011Z,6.44
2023-02-03T04:03:55.954Z,6.47
2023-02-03T04:08:52.439Z,6.46
2023-02-03T04:13:48.879Z,6.43
2023-02-03T04:18:45.265Z,6.36
2023-02-03T04:23:41.730Z,6.34
2023-02-03T04:28:38.158Z,6.28
2023-02-03T04:33:34.590Z,6.31
2023-02-03T04:38:31.064Z,6.30
2023-02-03T04:43:27.520Z,6.34
2023-02-03T04:48:23.977Z,6.35
2023-02-03T04:53:20.381Z,6.37
2023-02-03T04:58:16.800Z,6.38
2023-02-03T05:03:13.408Z,6.34
2023-02-03T05:08:09.867Z,6.31
2023-02-03T05:13:06.336Z,6.32
2023-02-03T05:18:02.872Z,6.31
2023-02-03T05:22:59.401Z,6.32
2023-02-03T05:27:55.887Z,6.30
2023-02-03T05:32:52.415Z,6.29
2023-02-03T05:37:48.948Z,6.32
2023-02-03T05:42:49.519Z,6.32
2023-02-03T05:47:46.108Z,6.32
2023-02-03T05:52:42.540Z,6.34
2023-02-03T05:57:39.084Z,6.37
2023-02-03T06:02:35.719Z,6.35
2023-02-03T06:07:32.141Z,6.33
2023-02-03T06:12:29.453Z,6.35
2023-02-03T06:17:25.913Z,6.36
2023-02-03T06:22:22.318Z,6.36
2023-02-03T06:27:18.722Z,6.36
2023-02-03T06:32:15.114Z,6.38
2023-02-03T06:37:11.541Z,6.41
2023-02-03T06:42:08.059Z,6.46
2023-02-03T06:47:04.563Z,6.49
2023-02-03T06:52:00.969Z,6.52
2023-02-03T06:56:57.363Z,6.59
2023-02-03T07:01:53.857Z,6.67
2023-02-03T07:06:50.306Z,6.73
2023-02-03T07:11:46.746Z,6.78
2023-02-03T07:16:43.122Z,6.78
2023-02-03T07:21:39.563Z,6.80
2023-02-03T07:26:35.934Z,6.79
2023-02-03T07:31:32.460Z,6.83
2023-02-03T07:36:28.937Z,6.84
2023-02-03T07:41:25.630Z,6.88
2023-02-03T07:46:22.092Z,6.92
2023-02-03T07:51:18.488Z,6.95
2023-02-03T07:56:14.926Z,6.98
2023-02-03T08:01:16.683Z,7.00
2023-02-03T08:06:13.101Z,7.01
2023-02-03T08:11:11.213Z,7.01
2023-02-03T08:16:07.678Z,6.83
2023-02-03T08:21:04.813Z,6.63
2023-02-03T08:26:01.345Z,6.57
2023-02-03T08:30:57.902Z,6.58
2023-02-03T08:35:54.518Z,6.55
2023-02-03T08:40:50.991Z,6.49
2023-02-03T08:45:47.383Z,6.42
2023-02-03T08:50:45.066Z,6.55
2023-02-03T08:55:41.524Z,6.49
2023-02-03T09:00:38.304Z,6.46
2023-02-03T09:05:34.996Z,6.43
2023-02-03T09:10:31.597Z,6.42
2023-02-03T09:15:28.053Z,6.53
2023-02-03T09:20:26.364Z,6.46
2023-02-03T09:25:23.372Z,6.46
2023-02-03T09:30:19.905Z,6.55
2023-02-03T09:35:16.355Z,6.53
2023-02-03T09:40:27.557Z,6.52
2023-02-03T09:45:30.463Z,6.56
2023-02-03T09:50:31.709Z,6.56
2023-02-03T09:55:38.674Z,6.50
2023-02-03T10:00:40.711Z,6.56
2023-02-03T10:05:48.958Z,6.55
2023-02-03T10:11:09.617Z,6.60
2023-02-03T10:16:19.072Z,6.62
2023-02-03T10:21:31.888Z,6.75
2023-02-03T10:26:29.375Z,6.74
2023-02-03T10:31:34.259Z,6.75
2023-02-03T10:36:43.729Z,6.73
2023-02-03T10:41:40.256Z,6.74
2023-02-03T10:46:40.597Z,6.70
2023-02-03T10:51:51.922Z,6.72
2023-02-03T10:56:48.407Z,6.73
2023-02-03T11:01:49.169Z,6.86
2023-02-03T11:06:56.176Z,7.02
2023-02-03T11:12:21.308Z,7.05
2023-02-03T11:17:23.824Z,7.09
2023-02-03T11:22:42.184Z,7.14
2023-02-03T11:27:38.740Z,7.24
2023-02-03T11:32:37.714Z,7.37
2023-02-03T11:37:41.935Z,7.30
2023-02-03T11:42:43.437Z,7.34
2023-02-03T11:48:11.378Z,7.33
2023-02-03T11:53:14.891Z,7.21
2023-02-03T11:58:14.282Z,7.14
2023-02-03T12:03:39.737Z,7.19
2023-02-03T12:08:51.931Z,7.18
2023-02-03T12:14:07.882Z,7.35
2023-02-03T12:19:13.529Z,7.52
2023-02-03T12:24:29.397Z,7.33
2023-02-03T12:29:32.444Z,7.18
2023-02-03T12:34:50.394Z,7.08
2023-02-03T12:39:53.034Z,7.07
2023-02-03T12:44:58.865Z,6.97
2023-02-03T12:50:05.710Z,6.91
2023-02-03T12:55:17.762Z,6.85
2023-02-03T13:00:31.017Z,6.84
2023-02-03T13:05:40.920Z,6.82
2023-02-03T13:10:48.740Z,6.80
2023-02-03T13:15:49.744Z,6.75
2023-02-03T13:20:46.247Z,6.71
2023-02-03T13:26:24.587Z,6.72
2023-02-03T13:31:40.893Z,6.70
2023-02-03T13:36:52.671Z,6.65
2023-02-03T13:41:53.867Z,6.61
2023-02-03T13:46:52.318Z,6.62
2023-02-03T13:51:48.820Z,6.60
2023-02-03T13:56:55.184Z,6.59
2023-02-03T14:01:51.568Z,6.57
2023-02-03T14:06:52.448Z,6.52
2023-02-03T14:12:12.561Z,6.50
2023-02-03T14:17:35.067Z,6.51
2023-02-03T14:22:32.052Z,6.47
2023-02-03T14:27:29.926Z,6.45
2023-02-03T14:32:48.907Z,6.42
2023-02-03T14:37:57.327Z,6.35
2023-02-03T14:43:10.922Z,6.34
2023-02-03T14:48:33.982Z,6.33
2023-02-03T14:54:10.280Z,6.36
2023-02-03T14:59:11.405Z,6.31
2023-02-03T15:04:13.572Z,6.34
2023-02-03T15:09:25.173Z,6.35
2023-02-03T15:14:32.383Z,6.36
2023-02-03T15:19:34.643Z,6.37
2023-02-03T15:24:37.025Z,6.37
2023-02-03T15:29:36.327Z,6.37
2023-02-03T15:34:39.427Z,6.31
2023-02-03T15:39:45.978Z,6.31
2023-02-03T15:44:49.362Z,6.32
2023-02-03T15:49:47.640Z,6.29
2023-02-03T15:54:53.515Z,6.30
2023-02-03T16:00:00.207Z,6.30
2023-02-03T16:04:56.849Z,6.29
2023-02-03T16:09:55.758Z,6.29
2023-02-03T16:14:54.331Z,6.13
2023-02-03T16:19:51.364Z,6.02
2023-02-03T16:24:47.829Z,6.01
2023-02-03T16:30:02.873Z,5.96
2023-02-03T16:35:17.649Z,5.88
2023-02-03T16:40:36.649Z,5.70
2023-02-03T16:45:51.661Z,5.55
2023-02-03T16:50:56.348Z,5.55
2023-02-03T16:55:56.480Z,5.43
2023-02-03T17:00:54.697Z,5.35
2023-02-03T17:05:51.709Z,5.26
2023-02-03T17:10:49.243Z,5.16
2023-02-03T17:15:49.025Z,5.10
2023-02-03T17:20:46.146Z,5.11
2023-02-03T17:25:45.342Z,5.12
2023-02-03T17:30:42.246Z,5.10
2023-02-03T17:35:43.412Z,5.14
2023-02-03T17:56:35.600Z,5.07
2023-02-03T18:01:32.269Z,5.13
2023-02-03T18:06:29.654Z,5.10
2023-02-03T18:11:26.055Z,5.09
2023-02-03T18:16:29.177Z,5.13
2023-02-03T18:21:26.996Z,5.11
2023-02-03T18:26:23.460Z,5.13
2023-02-03T18:31:20.960Z,5.13
2023-02-03T18:36:18.152Z,5.16
2023-02-03T18:41:18.801Z,5.15
2023-02-03T18:46:27.333Z,5.14
2023-02-03T18:51:25.541Z,5.14
2023-02-03T18:56:25.008Z,5.10
2023-02-03T19:01:29.819Z,5.01
2023-02-03T19:06:30.038Z,5.01
2023-02-03T19:11:26.920Z,5.06
2023-02-03T19:16:26.271Z,5.07
2023-02-03T19:21:23.148Z,5.09
2023-02-03T19:26:19.752Z,5.03
2023-02-03T19:31:16.571Z,5.03
2023-02-03T19:36:14.451Z,5.00
2023-02-03T19:41:11.809Z,5.03
2023-02-03T19:46:08.634Z,5.07
2023-02-03T19:51:06.013Z,5.09
2023-02-03T19:56:02.651Z,5.07
2023-02-03T20:00:59.326Z,5.05
2023-02-03T20:05:56.187Z,5.03
2023-02-03T20:10:53.364Z,5.05
2023-02-03T20:15:50.304Z,5.04
2023-02-03T20:20:51.926Z,5.02
2023-02-03T20:25:55.566Z,4.92
2023-02-03T20:30:54.132Z,4.78
2023-02-03T20:35:51.141Z,4.64
2023-02-03T20:40:48.184Z,4.57
2023-02-03T20:45:46.673Z,4.48
2023-02-03T20:50:48.106Z,4.31
2023-02-03T20:55:45.271Z,4.34
2023-02-03T21:00:42.025Z,4.35
2023-02-03T21:05:42.231Z,4.36
2023-02-03T21:10:40.824Z,4.17
2023-02-03T21:15:37.696Z,4.10
2023-02-03T21:20:34.920Z,4.07
2023-02-03T21:25:34.908Z,4.07
2023-02-03T21:30:34.883Z,3.98
2023-02-03T21:35:37.378Z,3.90
2023-02-03T21:40:34.971Z,3.73
2023-02-03T21:45:37.112Z,3.75
2023-02-03T21:50:36.718Z,3.75
2023-02-03T21:55:33.349Z,3.61
2023-02-03T22:00:49.146Z,3.57
2023-02-03T22:05:46.670Z,3.32
2023-02-03T22:10:46.105Z,3.10
2023-02-03T22:15:43.195Z,2.95
2023-02-03T22:20:40.512Z,2.84
2023-02-03T22:25:38.407Z,2.77
2023-02-03T22:30:35.422Z,2.68
2023-02-03T22:35:32.244Z,2.58
2023-02-03T22:40:29.287Z,2.50
2023-02-03T22:45:26.335Z,2.49
2023-02-03T22:50:34.673Z,2.47
2023-02-03T22:55:31.995Z,2.36
2023-02-03T23:00:29.065Z,2.32
2023-02-03T23:05:25.743Z,2.52
2023-02-03T23:10:24.903Z,2.62
2023-02-03T23:15:21.280Z,2.65
2023-02-03T23:20:18.249Z,2.72
2023-02-03T23:25:14.756Z,2.77
2023-02-03T23:30:11.896Z,2.78
2023-02-03T23:35:27.231Z,2.71
2023-02-03T23:40:23.684Z,2.66
2023-02-03T23:45:20.137Z,2.56
2023-02-03T23:50:17.161Z,2.49
2023-02-03T23:55:19.305Z,2.66
